createdAt,value
2023-05-14T00:00:12.374Z,69.7727
2023-05-14T00:01:13.148Z,70.0454
2023-05-14T00:02:13.849Z,70.1818
2023-05-14T00:03:16.053Z,70.0000
2023-05-14T00:04:16.231Z,70.0909
2023-05-14T00:05:16.911Z,70.0455
2023-05-14T00:06:16.933Z,0.0000
2023-05-14T00:07:17.592Z,70.0000
2023-05-14T00:08:18.297Z,69.8636
2023-05-14T00:10:18.542Z,0.0000
2023-05-14T00:11:18.551Z,0.0000
2023-05-14T00:12:18.603Z,0.0000
2023-05-14T00:13:18.634Z,0.0000
2023-05-14T00:15:19.474Z,70.0909
2023-05-14T00:16:19.558Z,70.0910
2023-05-14T00:18:20.520Z,0.0000
2023-05-14T00:19:41.551Z,70.1363
2023-05-14T00:20:23.020Z,0.0000
2023-05-14T00:21:23.943Z,70.0909
2023-05-14T00:22:24.582Z,70.4091
2023-05-14T00:23:24.636Z,70.3182
2023-05-14T00:24:25.314Z,69.9546
2023-05-14T00:25:25.372Z,70.0909
2023-05-14T00:26:25.401Z,70.0909
2023-05-14T00:27:26.033Z,70.0909
2023-05-14T00:28:26.078Z,70.1364
2023-05-14T00:29:26.121Z,0.0000
2023-05-14T00:30:26.190Z,0.0000
2023-05-14T00:31:26.883Z,0.0000
2023-05-14T00:32:26.914Z,70.2273
2023-05-14T00:33:27.767Z,70.0909
2023-05-14T00:34:28.450Z,0.0000
2023-05-14T00:35:28.484Z,0.0000
2023-05-14T00:36:29.073Z,0.0000
2023-05-14T00:37:30.061Z,0.0000
2023-05-14T00:38:30.090Z,70.2273
2023-05-14T00:39:30.891Z,70.1818
2023-05-14T00:40:31.988Z,70.2273
2023-05-14T00:41:32.053Z,70.0909
2023-05-14T00:42:32.697Z,0.0000
2023-05-14T00:43:33.650Z,0.0000
2023-05-14T00:45:36.901Z,0.0000
2023-05-14T00:46:37.883Z,0.0000
2023-05-14T00:47:37.947Z,0.0000
2023-05-14T00:48:38.767Z,0.0000
2023-05-14T00:49:38.742Z,0.0000
2023-05-14T00:50:39.472Z,0.0000
2023-05-14T00:51:40.612Z,0.0000
2023-05-14T00:52:41.344Z,0.0000
2023-05-14T00:53:41.404Z,0.0000
2023-05-14T00:54:41.430Z,70.2272
2023-05-14T00:55:41.495Z,69.0909
2023-05-14T00:56:42.077Z,0.0000
2023-05-14T00:57:43.029Z,0.0000
2023-05-14T00:58:43.061Z,69.3636
2023-05-14T00:59:43.138Z,69.3182
2023-05-14T01:00:43.267Z,69.1818
2023-05-14T01:01:43.957Z,0.0000
2023-05-14T01:02:44.065Z,0.0000
2023-05-14T01:03:44.245Z,0.0000
2023-05-14T01:04:44.968Z,69.0000
2023-05-14T01:05:44.985Z,69.2727
2023-05-14T01:06:45.664Z,69.3636
2023-05-14T01:07:46.334Z,69.6819
2023-05-14T01:08:47.057Z,69.5000
2023-05-14T01:09:47.101Z,69.6818
2023-05-14T01:10:47.155Z,69.7727
2023-05-14T01:11:47.864Z,70.0000
2023-05-14T01:12:47.908Z,69.4546
2023-05-14T01:13:48.993Z,69.5909
2023-05-14T01:14:49.930Z,69.5454
2023-05-14T01:15:49.954Z,69.6364
2023-05-14T01:16:50.081Z,69.5455
2023-05-14T01:17:50.158Z,69.5000
2023-05-14T01:18:50.266Z,59.2426
2023-05-14T01:19:50.341Z,33.5909
2023-05-14T01:20:50.384Z,36.9091
2023-05-14T01:21:50.427Z,37.2727
2023-05-14T01:22:50.452Z,37.2273
2023-05-14T01:23:50.523Z,36.1364
2023-05-14T01:24:50.558Z,35.6818
2023-05-14T01:25:50.578Z,36.0455
2023-05-14T01:26:50.626Z,35.8637
2023-05-14T01:27:51.006Z,0.0000
2023-05-14T01:28:51.104Z,36.0909
2023-05-14T01:29:51.114Z,0.0000
2023-05-14T01:30:51.774Z,0.0000
2023-05-14T01:31:51.833Z,0.0000
2023-05-14T01:32:52.482Z,35.9546
2023-05-14T01:33:53.307Z,35.6818
2023-05-14T01:34:53.612Z,30.8178
2023-05-14T01:35:54.356Z,29.9545
2023-05-14T01:36:54.699Z,30.2273
2023-05-14T01:37:54.739Z,30.1818
2023-05-14T01:38:55.926Z,30.4545
2023-05-14T01:39:55.998Z,30.2727
2023-05-14T01:40:56.426Z,30.0909
2023-05-14T01:41:57.187Z,30.2273
2023-05-14T01:42:57.253Z,30.1818
2023-05-14T01:43:58.066Z,0.0000
2023-05-14T01:44:58.764Z,30.1818
2023-05-14T01:45:58.816Z,30.2727
2023-05-14T01:46:59.492Z,30.1818
2023-05-14T01:48:00.796Z,0.0000
2023-05-14T01:49:00.856Z,0.0000
2023-05-14T01:50:01.491Z,0.0000
2023-05-14T01:51:01.692Z,0.0000
2023-05-14T01:53:02.982Z,30.6364
2023-05-14T01:54:03.008Z,30.5000
2023-05-14T01:55:03.691Z,30.4091
2023-05-14T01:56:04.302Z,30.5000
2023-05-14T01:57:05.063Z,30.3636
2023-05-14T01:58:06.556Z,30.4546
2023-05-14T01:59:06.597Z,30.5000
2023-05-14T02:00:07.258Z,0.0000
2023-05-14T02:01:08.603Z,0.0000
2023-05-14T02:07:13.546Z,0.0000
2023-05-14T02:08:13.583Z,0.0000
2023-05-14T02:09:13.612Z,0.0000
2023-05-14T02:10:14.243Z,0.0000
2023-05-14T02:11:14.280Z,30.7273
2023-05-14T02:13:15.142Z,30.7273
2023-05-14T02:14:16.276Z,30.4091
2023-05-14T02:19:23.936Z,0.0000
2023-05-14T02:20:24.624Z,0.0000
2023-05-14T02:21:25.189Z,30.5455
2023-05-14T02:22:26.039Z,30.2273
2023-05-14T02:23:37.983Z,0.0000
2023-05-14T02:24:26.703Z,29.7500
2023-05-14T02:25:27.548Z,0.0000
2023-05-14T02:26:28.218Z,0.0000
2023-05-14T02:27:28.671Z,0.0000
2023-05-14T02:28:29.322Z,0.0000
2023-05-14T02:29:29.424Z,30.0909
2023-05-14T02:30:29.817Z,31.9091
2023-05-14T02:31:30.898Z,0.0000
2023-05-14T02:32:31.250Z,0.0000
2023-05-14T02:33:32.452Z,31.9091
2023-05-14T02:34:33.484Z,32.0909
2023-05-14T02:35:33.559Z,31.9546
2023-05-14T02:36:34.404Z,32.1818
2023-05-14T02:37:35.630Z,0.0000
2023-05-14T02:38:35.692Z,0.0000
2023-05-14T02:39:36.361Z,0.0000
2023-05-14T02:40:36.504Z,0.0000
2023-05-14T02:41:37.933Z,0.0000
2023-05-14T02:42:38.856Z,0.0000
2023-05-14T02:43:38.911Z,0.0000
2023-05-14T02:44:40.416Z,0.0000
2023-05-14T02:45:41.169Z,0.0000
2023-05-14T02:46:41.616Z,0.0000
2023-05-14T02:47:42.607Z,0.0000
2023-05-14T02:48:43.785Z,0.0000
2023-05-14T02:49:43.835Z,0.0000
2023-05-14T02:50:44.703Z,0.0000
2023-05-14T02:51:44.968Z,0.0000
2023-05-14T02:52:45.109Z,0.0000
2023-05-14T02:53:45.344Z,31.9546
2023-05-14T02:54:46.420Z,32.1818
2023-05-14T02:55:46.513Z,31.9546
2023-05-14T02:56:47.375Z,32.1818
2023-05-14T02:57:47.633Z,0.0000
2023-05-14T02:59:48.268Z,0.0000
2023-05-14T03:00:48.854Z,0.0000
2023-05-14T03:01:50.400Z,0.0000
2023-05-14T03:02:51.124Z,0.0000
2023-05-14T03:03:51.883Z,0.0000
2023-05-14T03:04:52.717Z,0.0000
2023-05-14T03:05:52.927Z,0.0000
2023-05-14T03:06:53.575Z,0.0000
2023-05-14T03:07:54.526Z,0.0000
2023-05-14T03:08:54.754Z,31.9091
2023-05-14T03:09:55.512Z,31.9091
2023-05-14T03:10:56.327Z,32.2273
2023-05-14T03:11:56.779Z,32.0455
2023-05-14T03:12:57.638Z,32.1364
2023-05-14T03:13:57.693Z,32.0455
2023-05-14T03:14:58.998Z,31.9091
2023-05-14T03:15:59.939Z,0.0000
2023-05-14T03:17:00.841Z,0.0000
2023-05-14T03:18:01.123Z,0.0000
2023-05-14T03:19:01.322Z,0.0000
2023-05-14T03:20:01.968Z,32.1364
2023-05-14T03:21:02.824Z,32.1364
2023-05-14T03:22:02.882Z,31.9546
2023-05-14T03:23:03.139Z,0.0000
2023-05-14T03:24:03.375Z,0.0000
2023-05-14T03:25:04.249Z,0.0000
2023-05-14T03:26:04.576Z,0.0000
2023-05-14T03:27:04.638Z,0.0000
2023-05-14T03:28:05.461Z,0.0000
2023-05-14T03:29:05.516Z,0.0000
2023-05-14T03:30:06.770Z,0.0000
2023-05-14T03:31:07.569Z,0.0000
2023-05-14T03:32:08.279Z,0.0000
2023-05-14T03:33:09.108Z,0.0000
2023-05-14T03:34:09.205Z,0.0000
2023-05-14T03:35:10.782Z,0.0000
2023-05-14T03:36:11.754Z,0.0000
2023-05-14T03:38:13.236Z,0.0000
2023-05-14T03:39:13.713Z,0.0000
2023-05-14T03:40:14.969Z,0.0000
2023-05-14T03:41:16.007Z,0.0000
2023-05-14T03:42:16.889Z,0.0000
2023-05-14T03:43:17.005Z,0.0000
2023-05-14T03:44:17.965Z,0.0000
2023-05-14T03:45:19.574Z,0.0000
2023-05-14T03:46:21.521Z,0.0000
2023-05-14T03:48:25.359Z,0.0000
2023-05-14T03:49:25.491Z,0.0000
2023-05-14T03:50:26.347Z,0.0000
2023-05-14T03:51:27.113Z,0.0000
2023-05-14T03:52:27.155Z,0.0000
2023-05-14T03:53:27.887Z,0.0000
2023-05-14T03:54:28.499Z,0.0000
2023-05-14T03:55:28.603Z,0.0000
2023-05-14T03:56:29.768Z,0.0000
2023-05-14T03:57:30.411Z,0.0000
2023-05-14T03:58:30.501Z,0.0000
2023-05-14T03:59:31.841Z,0.0000
2023-05-14T04:00:32.932Z,0.0000
2023-05-14T04:01:32.999Z,0.0000
2023-05-14T04:02:33.805Z,0.0000
2023-05-14T04:03:34.094Z,0.0000
2023-05-14T04:04:35.447Z,0.0000
2023-05-14T04:05:35.554Z,0.0000
2023-05-14T04:06:35.624Z,0.0000
2023-05-14T04:07:36.405Z,0.0000
2023-05-14T04:08:37.237Z,0.0000
2023-05-14T04:09:37.961Z,0.0000
2023-05-14T04:10:38.071Z,0.0000
2023-05-14T04:11:38.145Z,0.0000
2023-05-14T04:12:38.906Z,0.0000
2023-05-14T04:13:39.461Z,0.0000
2023-05-14T04:14:39.553Z,0.0000
2023-05-14T04:15:40.558Z,0.0000
2023-05-14T04:16:40.750Z,32.0455
2023-05-14T04:17:41.249Z,32.0455
2023-05-14T04:18:41.984Z,31.9546
2023-05-14T04:19:42.738Z,31.8636
2023-05-14T04:25:47.636Z,32.1364
2023-05-14T04:26:48.467Z,32.0455
2023-05-14T04:27:49.145Z,32.0000
2023-05-14T04:28:49.227Z,32.1364
2023-05-14T04:29:49.953Z,32.0455
2023-05-14T04:30:50.850Z,31.9091
2023-05-14T04:31:50.962Z,32.0455
2023-05-14T04:32:51.697Z,32.1364
2023-05-14T04:33:51.778Z,0.0000
2023-05-14T04:34:52.458Z,0.0000
2023-05-14T04:35:52.596Z,32.1818
2023-05-14T04:36:53.346Z,31.9546
2023-05-14T04:37:54.193Z,32.1818
2023-05-14T04:38:54.843Z,0.0000
2023-05-14T04:39:55.730Z,31.8636
2023-05-14T04:40:56.475Z,32.0000
2023-05-14T04:41:56.571Z,0.0000
2023-05-14T04:42:57.249Z,0.0000
2023-05-14T04:43:57.932Z,31.9091
2023-05-14T04:44:57.994Z,31.8182
2023-05-14T04:45:58.962Z,32.0455
2023-05-14T04:46:59.714Z,32.0909
2023-05-14T04:47:59.836Z,31.9091
2023-05-14T04:49:00.611Z,31.7727
2023-05-14T04:50:00.689Z,31.9546
2023-05-14T04:57:07.497Z,0.0000
2023-05-14T04:58:07.625Z,0.0000
2023-05-14T04:59:07.959Z,0.0000
2023-05-14T05:00:08.060Z,32.0455
2023-05-14T05:01:08.251Z,32.0455
2023-05-14T05:02:08.322Z,32.0455
2023-05-14T05:03:09.086Z,0.0000
2023-05-14T05:04:09.358Z,0.0000
2023-05-14T05:05:09.941Z,0.0000
2023-05-14T05:06:10.905Z,0.0000
2023-05-14T05:07:10.978Z,0.0000
2023-05-14T05:08:11.745Z,31.9546
2023-05-14T05:09:12.523Z,32.0455
2023-05-14T05:11:16.133Z,0.0000
2023-05-14T05:12:16.897Z,32.0909
2023-05-14T05:13:18.267Z,31.9546
2023-05-14T05:14:18.356Z,0.0000
2023-05-14T05:15:18.419Z,0.0000
2023-05-14T05:16:18.694Z,31.9091
2023-05-14T05:17:18.789Z,32.0455
2023-05-14T05:18:18.878Z,32.1364
2023-05-14T05:19:20.844Z,32.0000
2023-05-14T05:20:19.797Z,32.0952
2023-05-14T05:21:20.363Z,0.0000
2023-05-14T05:22:20.420Z,32.0000
2023-05-14T05:23:21.645Z,32.0909
2023-05-14T05:24:22.382Z,32.0000
2023-05-14T05:25:23.776Z,0.0000
2023-05-14T05:26:23.842Z,31.9546
2023-05-14T05:27:24.542Z,0.0000
2023-05-14T05:28:24.709Z,32.1364
2023-05-14T05:29:25.373Z,32.0455
2023-05-14T05:30:26.254Z,32.0455
2023-05-14T05:31:26.457Z,33.3182
2023-05-14T05:32:27.234Z,33.0455
2023-05-14T05:33:27.286Z,33.3182
2023-05-14T05:34:28.075Z,32.3636
2023-05-14T05:35:28.973Z,32.5000
2023-05-14T05:36:29.079Z,32.4091
2023-05-14T05:37:30.087Z,0.0000
2023-05-14T05:38:30.189Z,32.4546
2023-05-14T05:39:30.266Z,33.2727
2023-05-14T05:40:30.402Z,35.3182
2023-05-14T05:41:30.460Z,35.3636
2023-05-14T05:42:30.866Z,35.2273
2023-05-14T05:43:31.000Z,35.5000
2023-05-14T05:44:31.107Z,35.2727
2023-05-14T05:45:31.793Z,0.0000
2023-05-14T05:46:31.950Z,35.4091
2023-05-14T05:47:32.654Z,35.1364
2023-05-14T05:48:33.309Z,35.4545
2023-05-14T05:49:33.599Z,0.0000
2023-05-14T05:50:34.329Z,0.0000
2023-05-14T05:51:35.070Z,0.0000
2023-05-14T05:52:35.777Z,35.2273
2023-05-14T05:53:35.865Z,35.4091
2023-05-14T05:54:36.627Z,35.4546
2023-05-14T05:55:37.468Z,0.0000
2023-05-14T05:56:37.553Z,0.0000
2023-05-14T05:57:37.641Z,0.0000
2023-05-14T05:58:37.980Z,35.3636
2023-05-14T05:59:38.090Z,35.3636
2023-05-14T06:00:39.076Z,35.4091
2023-05-14T06:01:40.286Z,0.0000
2023-05-14T06:03:45.268Z,35.2609
2023-05-14T06:04:44.990Z,34.8095
2023-05-14T06:05:45.210Z,0.0000
2023-05-14T06:06:45.958Z,0.0000
2023-05-14T06:07:46.692Z,34.9091
2023-05-14T06:09:46.895Z,34.8636
2023-05-14T06:10:47.634Z,34.8182
2023-05-14T06:27:15.538Z,0.0000
2023-05-14T06:28:16.231Z,0.0000
2023-05-14T06:29:17.034Z,0.0000
2023-05-14T06:31:20.477Z,34.4783
2023-05-14T06:32:21.403Z,34.6818
2023-05-14T06:33:21.586Z,0.0000
2023-05-14T06:34:22.282Z,0.0000
2023-05-14T06:35:23.002Z,34.6364
2023-05-14T06:38:26.354Z,0.0000
2023-05-14T06:39:27.021Z,0.0000
2023-05-14T06:40:27.786Z,346.2531
2023-05-14T06:41:27.848Z,317.9556
2023-05-14T06:42:27.941Z,317.6827
2023-05-14T06:43:45.739Z,319.4554
2023-05-14T06:44:29.610Z,321.0009
2023-05-14T06:45:33.189Z,321.8435
2023-05-14T06:46:33.415Z,323.4101
2023-05-14T06:47:34.267Z,323.2741
2023-05-14T06:48:35.174Z,323.7744
2023-05-14T06:50:35.806Z,0.0000
2023-05-14T06:52:37.487Z,323.3649
2023-05-14T07:03:11.796Z,0.0000
2023-05-14T07:03:53.650Z,330.0005
2023-05-14T07:04:54.187Z,329.1829
2023-05-14T07:05:54.382Z,329.1372
2023-05-14T07:06:55.078Z,330.0468
2023-05-14T07:07:55.220Z,8.3195
2023-05-14T07:08:55.897Z,36.5909
2023-05-14T07:09:56.678Z,36.5000
2023-05-14T07:10:56.759Z,36.6364
2023-05-14T07:11:56.840Z,0.0000
2023-05-14T07:12:57.514Z,31.9993
2023-05-14T07:13:58.249Z,29.8636
2023-05-14T07:14:58.367Z,29.5909
2023-05-14T07:15:58.466Z,29.1364
2023-05-14T07:16:58.639Z,28.9091
2023-05-14T07:17:59.423Z,29.0455
2023-05-14T07:18:59.557Z,0.0000
2023-05-14T07:20:00.294Z,0.0000
2023-05-14T07:21:00.427Z,22.4994
2023-05-14T07:22:01.155Z,22.0909
2023-05-14T07:23:01.233Z,22.3636
2023-05-14T07:24:01.315Z,22.0909
2023-05-14T07:25:02.123Z,22.1818
2023-05-14T07:26:02.209Z,22.1818
2023-05-14T07:27:03.009Z,22.2273
2023-05-14T07:28:03.739Z,22.2727
2023-05-14T07:29:04.594Z,22.1364
2023-05-14T07:31:05.947Z,21.2273
2023-05-14T07:32:06.034Z,16.8786
2023-05-14T07:33:06.813Z,339.7732
2023-05-14T07:34:07.707Z,339.6829
2023-05-14T07:35:07.830Z,339.3643
2023-05-14T07:36:08.546Z,339.3191
2023-05-14T07:37:08.626Z,337.4544
2023-05-14T07:38:09.422Z,335.5005
2023-05-14T07:39:09.512Z,334.6393
2023-05-14T07:40:10.290Z,331.1821
2023-05-14T07:41:10.409Z,328.0910
2023-05-14T07:42:10.448Z,313.9034
2023-05-14T07:43:10.544Z,312.7290
2023-05-14T07:44:10.640Z,319.2439
2023-05-14T07:45:10.932Z,317.6243
2023-05-14T07:46:11.105Z,314.2285
2023-05-14T07:47:11.704Z,32.9207
2023-05-14T07:48:12.186Z,28.9460
2023-05-14T07:49:13.092Z,339.3190
2023-05-14T07:50:14.341Z,339.7286
2023-05-14T07:51:16.186Z,4.2477
2023-05-14T07:52:23.281Z,11.3636
2023-05-14T08:00:28.678Z,330.4556
2023-05-14T08:01:28.870Z,342.0853
2023-05-14T08:02:29.016Z,356.3822
2023-05-14T08:03:42.442Z,329.9100
2023-05-14T08:04:31.708Z,335.8894
2023-05-14T08:05:31.786Z,345.9184
2023-05-14T08:06:32.517Z,33.8223
2023-05-14T08:07:35.159Z,22.5908
2023-05-14T08:08:35.259Z,25.0910
2023-05-14T08:09:35.336Z,258.1367
2023-05-14T08:10:36.187Z,258.1823
2023-05-14T08:11:36.332Z,258.0460
2023-05-14T08:12:36.444Z,180.9845
2023-05-14T08:13:37.206Z,313.1336
2023-05-14T08:14:38.063Z,331.5120
2023-05-14T08:15:38.155Z,334.8189
2023-05-14T08:16:38.887Z,334.3640
2023-05-14T08:17:39.045Z,333.0979
2023-05-14T08:19:40.555Z,349.3900
2023-05-14T08:20:40.640Z,33.0914
2023-05-14T08:21:41.484Z,33.1364
2023-05-14T08:22:41.578Z,330.0724
2023-05-14T08:23:42.554Z,321.6372
2023-05-14T08:24:42.654Z,311.1369
2023-05-14T08:25:42.802Z,330.0070
2023-05-14T08:26:42.866Z,31.9706
2023-05-14T08:27:42.983Z,1.4598
2023-05-14T08:28:43.931Z,299.1985
2023-05-14T08:29:44.030Z,298.6846
2023-05-14T08:30:44.801Z,290.6063
2023-05-14T08:31:44.875Z,293.2286
2023-05-14T08:32:45.579Z,297.2315
2023-05-14T08:33:47.035Z,300.2734
2023-05-14T08:34:48.510Z,317.1965
2023-05-14T08:35:49.252Z,332.8195
2023-05-14T08:36:53.667Z,328.5011
2023-05-14T08:40:54.148Z,2.4515
2023-05-14T08:41:55.161Z,340.5457
2023-05-14T08:42:55.497Z,83.2929
2023-05-14T08:43:56.504Z,50.0837
2023-05-14T08:44:56.840Z,34.6818
2023-05-14T08:45:57.664Z,66.7446
2023-05-14T08:46:58.555Z,38.7482
2023-05-14T08:47:59.656Z,351.4720
2023-05-14T08:49:00.579Z,338.3399
2023-05-14T08:50:01.559Z,322.8535
2023-05-14T08:51:02.149Z,302.1289
2023-05-14T08:52:03.603Z,289.2803
2023-05-14T08:53:03.748Z,306.4738
2023-05-14T08:54:05.585Z,0.8756
2023-05-14T08:55:06.607Z,81.1903
2023-05-14T08:56:07.013Z,101.2824
2023-05-14T08:57:07.157Z,335.2766
2023-05-14T08:58:20.974Z,311.4793
2023-05-14T08:59:21.082Z,289.2660
2023-05-14T09:00:21.316Z,323.3537
2023-05-14T09:01:21.734Z,336.7425
2023-05-14T09:02:22.847Z,293.9151
2023-05-14T09:03:23.349Z,305.7423
2023-05-14T09:04:23.544Z,291.1323
2023-05-14T09:05:24.482Z,270.4692
2023-05-14T09:06:24.765Z,285.8451
2023-05-14T09:07:25.273Z,325.8933
2023-05-14T09:08:28.866Z,316.9663
2023-05-14T09:13:32.857Z,10.4117
2023-05-14T09:14:33.006Z,319.7825
2023-05-14T09:15:33.964Z,288.0007
2023-05-14T09:16:34.747Z,307.2570
2023-05-14T09:17:35.426Z,335.5640
2023-05-14T09:18:36.223Z,340.7738
2023-05-14T09:19:36.327Z,358.4573
2023-05-14T09:20:37.074Z,5.1929
2023-05-14T09:21:37.203Z,328.6654
2023-05-14T09:22:58.334Z,292.8306
2023-05-14T09:23:40.532Z,327.7966
2023-05-14T09:24:41.022Z,339.5727
2023-05-14T09:25:41.869Z,355.2855
2023-05-14T09:26:41.994Z,3.5003
2023-05-14T09:27:42.118Z,286.2554
2023-05-14T09:28:42.236Z,320.7954
2023-05-14T09:29:42.406Z,325.7517
2023-05-14T09:30:42.558Z,297.0484
2023-05-14T09:31:43.501Z,309.2383
2023-05-14T09:32:44.399Z,289.8809
2023-05-14T09:33:44.889Z,320.8795
2023-05-14T09:34:45.466Z,314.0090
2023-05-14T09:35:45.661Z,313.0157
2023-05-14T09:36:46.378Z,2.0315
2023-05-14T09:37:46.673Z,53.0711
2023-05-14T09:38:46.935Z,102.6413
2023-05-14T09:39:47.831Z,289.8209
2023-05-14T09:40:48.181Z,306.4457
2023-05-14T09:41:48.302Z,305.0464
2023-05-14T09:42:48.990Z,11.3273
2023-05-14T09:43:49.922Z,332.8698
2023-05-14T09:45:50.709Z,345.0261
2023-05-14T09:46:51.458Z,10.2567
2023-05-14T09:48:51.962Z,291.2664
2023-05-14T09:49:52.095Z,328.9062
2023-05-14T09:50:52.426Z,356.9427
2023-05-14T09:51:53.299Z,350.7451
2023-05-14T09:52:54.120Z,304.4471
2023-05-14T09:53:54.466Z,316.5401
2023-05-14T09:54:55.454Z,333.8191
2023-05-14T09:55:55.663Z,323.3631
2023-05-14T09:56:55.962Z,348.9901
2023-05-14T09:57:57.150Z,278.4077
2023-05-14T09:58:57.274Z,323.4150
2023-05-14T09:59:57.453Z,293.3045
2023-05-14T10:00:57.711Z,305.4677
2023-05-14T10:01:57.884Z,313.3585
2023-05-14T10:02:58.023Z,73.7404
2023-05-14T10:04:02.562Z,340.5461
2023-05-14T10:10:08.921Z,58.2443
2023-05-14T10:11:09.047Z,317.6541
2023-05-14T10:12:09.696Z,313.2285
2023-05-14T10:13:10.263Z,317.0761
2023-05-14T10:14:11.596Z,317.5461
2023-05-14T10:15:12.328Z,320.2295
2023-05-14T10:16:12.927Z,40.1801
2023-05-14T10:17:13.188Z,74.5254
2023-05-14T10:18:13.355Z,257.7200
2023-05-14T10:19:14.020Z,4.8230
2023-05-14T10:20:14.177Z,4.2673
2023-05-14T10:21:14.287Z,335.8142
2023-05-14T10:22:14.959Z,3.1364
2023-05-14T10:23:16.284Z,52.2441
2023-05-14T10:24:16.440Z,300.9459
2023-05-14T10:25:16.561Z,316.6968
2023-05-14T10:26:17.596Z,1.2120
2023-05-14T10:27:17.736Z,2.8637
2023-05-14T10:28:17.900Z,0.4999
2023-05-14T10:29:18.054Z,304.8895
2023-05-14T10:30:18.200Z,281.5766
2023-05-14T10:31:18.414Z,324.6718
2023-05-14T10:32:18.621Z,325.5107
2023-05-14T10:33:18.868Z,322.1368
2023-05-14T10:34:19.056Z,318.2278
2023-05-14T10:35:20.009Z,309.6835
2023-05-14T10:36:20.136Z,306.7736
2023-05-14T10:37:20.673Z,328.3391
2023-05-14T10:38:20.771Z,56.8333
2023-05-14T10:39:21.869Z,58.5000
2023-05-14T10:40:22.927Z,349.6826
2023-05-14T10:41:23.382Z,301.5448
2023-05-14T10:42:23.561Z,8.9482
2023-05-14T10:43:23.638Z,348.4401
2023-05-14T10:44:23.872Z,349.5562
2023-05-14T10:45:24.421Z,340.3190
2023-05-14T10:46:24.655Z,338.4099
2023-05-14T10:47:24.794Z,335.2738
2023-05-14T10:48:25.080Z,314.5367
2023-05-14T10:49:39.718Z,347.3295
2023-05-14T10:50:26.972Z,330.5977
2023-05-14T10:51:27.786Z,331.8196
2023-05-14T10:52:27.914Z,332.5461
2023-05-14T10:53:28.015Z,332.5917
2023-05-14T10:54:29.126Z,337.2729
2023-05-14T10:55:29.316Z,340.2742
2023-05-14T10:56:29.434Z,325.0963
2023-05-14T10:57:30.260Z,267.2747
2023-05-14T10:58:30.420Z,295.0264
2023-05-14T10:59:31.190Z,302.6369
2023-05-14T11:00:31.359Z,307.5914
2023-05-14T11:01:31.494Z,307.2740
2023-05-14T11:02:32.263Z,310.5910
2023-05-14T11:03:33.125Z,297.9544
2023-05-14T11:04:33.425Z,295.6833
2023-05-14T11:05:33.541Z,296.9095
2023-05-14T11:06:33.682Z,302.6837
2023-05-14T11:07:33.787Z,288.6906
2023-05-14T11:08:33.948Z,293.1371
2023-05-14T11:09:34.685Z,296.2603
2023-05-14T11:10:34.889Z,327.9973
2023-05-14T11:11:35.716Z,64.5000
2023-05-14T11:12:35.871Z,76.3719
2023-05-14T11:13:36.002Z,87.4076
2023-05-14T11:14:36.140Z,93.0913
2023-05-14T11:15:36.344Z,93.0459
2023-05-14T11:16:37.185Z,92.8641
2023-05-14T11:17:37.405Z,90.6822
2023-05-14T11:18:38.274Z,88.3182
2023-05-14T11:19:38.395Z,7.5377
2023-05-14T11:20:38.520Z,355.8272
2023-05-14T11:21:39.527Z,337.2284
2023-05-14T11:22:39.681Z,325.8647
2023-05-14T11:23:40.003Z,306.2262
2023-05-14T11:24:40.191Z,300.6372
2023-05-14T11:25:40.803Z,309.7757
2023-05-14T11:26:41.011Z,336.5883
2023-05-14T11:27:41.813Z,10.5909
2023-05-14T11:28:41.949Z,56.3554
2023-05-14T11:29:42.734Z,52.7118
2023-05-14T11:30:43.755Z,45.8182
2023-05-14T11:33:48.005Z,298.9570
2023-05-14T11:34:48.147Z,293.0335
2023-05-14T11:35:48.302Z,281.4576
2023-05-14T11:36:48.454Z,293.7331
2023-05-14T11:37:50.898Z,296.8188
2023-05-14T11:38:51.054Z,300.5762
2023-05-14T11:39:58.359Z,272.5236
2023-05-14T11:42:10.508Z,268.5657
2023-05-14T11:42:59.144Z,316.1974
2023-05-14T11:43:59.992Z,301.2695
2023-05-14T11:45:00.755Z,298.6828
2023-05-14T11:46:00.960Z,0.0000
2023-05-14T11:47:01.793Z,107.3360
2023-05-14T11:48:01.946Z,111.5004
2023-05-14T11:49:02.723Z,286.5284
2023-05-14T11:50:19.972Z,311.0459
2023-05-14T11:51:42.306Z,23.4975
2023-05-14T11:52:43.341Z,40.8646
2023-05-14T11:53:44.797Z,42.8636
2023-05-14T11:54:45.334Z,29.4433
2023-05-14T11:55:45.674Z,14.2186
2023-05-14T11:57:03.262Z,8.0910
2023-05-14T11:57:47.835Z,340.1258
2023-05-14T11:58:48.623Z,333.1984
2023-05-14T11:59:48.767Z,21.0552
2023-05-14T12:00:50.053Z,255.7661
2023-05-14T12:01:50.993Z,254.8638
2023-05-14T12:02:51.214Z,302.0888
2023-05-14T12:03:52.325Z,326.6371
2023-05-14T12:04:53.831Z,352.2521
2023-05-14T12:05:54.602Z,39.2953
2023-05-14T12:06:54.948Z,16.7030
2023-05-14T12:07:55.496Z,13.3206
2023-05-14T12:08:55.948Z,359.7201
2023-05-14T12:09:56.169Z,53.2450
2023-05-14T12:10:56.447Z,314.7283
2023-05-14T12:11:56.906Z,251.7284
2023-05-14T12:12:57.314Z,266.0496
2023-05-14T12:13:57.709Z,253.8117
2023-05-14T12:14:58.050Z,306.6192
2023-05-14T12:15:58.262Z,311.7033
2023-05-14T12:16:58.645Z,309.7101
2023-05-14T12:18:59.550Z,41.1474
2023-05-14T12:19:59.737Z,348.7385
2023-05-14T12:21:01.497Z,79.0183
2023-05-14T12:22:02.291Z,342.0850
2023-05-14T12:23:02.406Z,42.8438
2023-05-14T12:24:03.345Z,55.1507
2023-05-14T12:25:04.377Z,53.4804
2023-05-14T12:26:04.572Z,61.7273
2023-05-14T12:27:05.635Z,101.5126
2023-05-14T12:28:05.979Z,110.7874
2023-05-14T12:29:06.331Z,4.8234
2023-05-14T12:31:07.389Z,47.3852
2023-05-14T12:32:08.842Z,53.5666
2023-05-14T12:33:09.710Z,337.2168
2023-05-14T12:34:09.856Z,347.3067
2023-05-14T12:35:10.631Z,72.3349
2023-05-14T12:36:21.188Z,23.8784
2023-05-14T12:37:13.912Z,277.5761
2023-05-14T12:38:15.020Z,149.0717
2023-05-14T12:39:15.466Z,133.6822
2023-05-14T12:40:15.625Z,135.4094
2023-05-14T12:41:15.960Z,123.1189
2023-05-14T12:42:17.652Z,348.0461
2023-05-14T12:43:17.818Z,323.0467
2023-05-14T12:44:17.951Z,319.2727
2023-05-14T12:45:18.068Z,324.0545
2023-05-14T12:46:18.193Z,38.9693
2023-05-14T12:47:18.423Z,356.2431
2023-05-14T12:48:18.574Z,345.6280
2023-05-14T12:49:18.728Z,0.0000
2023-05-14T12:50:19.496Z,353.1123
2023-05-14T12:52:36.124Z,63.6710
2023-05-14T12:53:24.047Z,83.1500
2023-05-14T13:03:38.265Z,95.0913
2023-05-14T13:04:38.659Z,95.4095
2023-05-14T13:05:41.422Z,95.4095
2023-05-14T13:09:44.265Z,95.2731
2023-05-14T13:10:44.421Z,95.1368
2023-05-14T13:11:44.563Z,0.0000
2023-05-14T13:12:44.692Z,95.5458
2023-05-14T13:13:44.834Z,95.2277
2023-05-14T13:14:44.982Z,95.2731
2023-05-14T13:15:45.182Z,95.3641
2023-05-14T13:16:45.408Z,95.3186
2023-05-14T13:17:45.682Z,99.5439
2023-05-14T13:18:45.846Z,209.6647
2023-05-14T13:19:45.968Z,250.1368
2023-05-14T13:20:46.127Z,259.8642
2023-05-14T13:21:46.272Z,261.2731
2023-05-14T13:22:46.392Z,261.2275
2023-05-14T13:23:46.532Z,261.5903
2023-05-14T13:24:46.887Z,260.9551
2023-05-14T13:25:49.671Z,260.5005
2023-05-14T13:26:47.351Z,260.5720
2023-05-14T13:27:47.503Z,260.6824
2023-05-14T13:28:47.703Z,261.4094
2023-05-14T13:30:49.049Z,260.9548
2023-05-14T13:31:49.181Z,261.1819
2023-05-14T13:33:50.168Z,260.5915
2023-05-14T13:34:50.338Z,260.9093
2023-05-14T13:35:51.288Z,260.8185
2023-05-14T13:36:52.471Z,230.3477
2023-05-14T13:37:53.973Z,229.5005
2023-05-14T13:38:55.594Z,231.8185
2023-05-14T13:39:56.012Z,238.8900
2023-05-14T13:40:56.389Z,266.2726
2023-05-14T13:41:56.598Z,262.5004
2023-05-14T13:42:57.525Z,270.5916
2023-05-14T13:43:58.308Z,276.4102
2023-05-14T13:44:58.477Z,283.1513
2023-05-14T13:45:58.727Z,298.0464
2023-05-14T13:46:58.916Z,297.7283
2023-05-14T13:47:59.115Z,305.0956
2023-05-14T13:48:59.323Z,299.1399
2023-05-14T13:51:00.188Z,288.5917
2023-05-14T13:52:00.359Z,277.6737
2023-05-14T13:53:01.398Z,267.6834
2023-05-14T13:54:02.223Z,216.9197
2023-05-14T13:55:02.385Z,226.0968
2023-05-14T13:56:03.234Z,235.8640
2023-05-14T13:57:03.470Z,250.1174
2023-05-14T13:58:04.070Z,222.3192